Time;durP1;ratioP1;P1;durP2;ratioP2;P2;SDS_P1;SDS_P2;PMS_P1;PMS_P2;Temp;Humidity;BMP_temperature;BMP_pressure;BME280_temperature;BME280_humidity;BME280_pressure;Samples;Min_cycle;Max_cycle;Signal;HPM_P1;HPM_P2
2022/08/30 00:01:37;;;;;;;14.57;10.95;;;;;17.00;96652.00;;;;8360210;28;20299;-72
2022/08/30 00:06:15;;;;;;;22.33;11.48;;;;;16.90;96650.00;;;;8362286;28;20709;-72
2022/08/30 00:10:20;;;;;;;17.23;10.93;;;;;16.90;96646.00;;;;8365550;28;20295;-72
2022/08/30 00:14:24;;;;;;;17.38;9.57;;;;;16.90;96642.00;;;;8367310;28;20265;-72
2022/08/30 00:19:01;;;;;;;16.48;11.50;;;;;16.90;96641.00;;;;8364896;28;20231;-72
2022/08/30 00:23:05;;;;;;;16.10;10.65;;;;;16.80;96640.00;;;;8366200;28;20637;-72
2022/08/30 00:27:44;;;;;;;18.90;11.30;;;;;16.80;96641.00;;;;8366312;28;20707;-73
2022/08/30 00:31:48;;;;;;;18.77;10.15;;;;;16.70;96643.00;;;;8365053;28;20217;-73
2022/08/30 00:35:51;;;;;;;19.10;11.18;;;;;16.60;96639.00;;;;8365413;28;20636;-73
2022/08/30 00:39:54;;;;;;;21.08;10.57;;;;;16.60;96633.00;;;;8364596;28;20307;-73
2022/08/30 00:43:59;;;;;;;17.90;10.65;;;;;16.60;96630.00;;;;8364480;28;20216;-73
2022/08/30 00:48:33;;;;;;;19.40;10.32;;;;;16.50;96635.00;;;;8365662;28;20304;-74
2022/08/30 00:52:40;;;;;;;20.23;10.45;;;;;16.60;96629.00;;;;8365326;28;20225;-72
2022/08/30 00:56:43;;;;;;;24.25;10.88;;;;;16.50;96632.00;;;;8364277;28;20240;-71
2022/08/30 01:01:21;;;;;;;20.98;11.70;;;;;16.50;96629.00;;;;8365676;28;20317;-72
2022/08/30 01:05:24;;;;;;;15.00;10.55;;;;;16.50;96632.00;;;;8362992;28;20221;-72
2022/08/30 01:10:02;;;;;;;16.92;10.73;;;;;16.40;96628.00;;;;8364357;28;20304;-72
2022/08/30 01:14:07;;;;;;;17.42;9.43;;;;;16.40;96622.00;;;;8363683;28;20225;-72
2022/08/30 01:18:16;;;;;;;15.05;9.95;;;;;16.40;96620.00;;;;8362895;28;20684;-72
2022/08/30 01:22:25;;;;;;;17.88;10.10;;;;;16.30;96623.00;;;;8363604;28;20327;-72
2022/08/30 01:26:30;;;;;;;17.30;10.25;;;;;16.30;96624.00;;;;8364782;28;20598;-72
2022/08/30 01:31:04;;;;;;;16.33;10.50;;;;;16.10;96620.00;;;;8362788;28;20538;-73
2022/08/30 01:35:09;;;;;;;18.60;11.00;;;;;16.00;96615.00;;;;8364041;28;20300;-73
2022/08/30 01:39:14;;;;;;;20.10;9.95;;;;;16.00;96615.00;;;;8363403;28;20227;-73
2022/08/30 01:43:19;;;;;;;21.23;10.85;;;;;16.00;96618.00;;;;8363558;28;20328;-73
2022/08/30 01:47:22;;;;;;;14.55;10.20;;;;;16.00;96619.00;;;;8363757;28;20657;-73
2022/08/30 01:51:59;;;;;;;21.88;11.98;;;;;15.90;96620.00;;;;8363409;28;20219;-73
2022/08/30 01:56:04;;;;;;;17.25;9.75;;;;;15.90;96618.00;;;;8361461;28;20221;-72
2022/08/30 02:00:40;;;;;;;20.25;11.13;;;;;15.80;96623.00;;;;8363772;28;20307;-73
2022/08/30 02:04:43;;;;;;;19.90;10.30;;;;;15.70;96620.00;;;;8362378;28;20230;-72
2022/08/30 02:08:47;;;;;;;16.85;10.70;;;;;15.60;96618.00;;;;8362668;28;20570;-72
2022/08/30 02:13:21;;;;;;;19.70;10.88;;;;;15.50;96612.00;;;;8362893;28;20311;-72
2022/08/30 02:17:25;;;;;;;18.33;10.88;;;;;15.50;96617.00;;;;8362354;28;20227;-73
2022/08/30 02:21:59;;;;;;;15.73;9.93;;;;;15.40;96611.00;;;;8361544;28;20673;-73
2022/08/30 02:26:36;;;;;;;16.13;10.50;;;;;15.40;96616.00;;;;8361591;28;20326;-72
2022/08/30 02:30:40;;;;;;;18.20;11.80;;;;;15.50;96611.00;;;;8360703;28;20215;-72
2022/08/30 02:34:46;;;;;;;15.85;10.73;;;;;15.50;96609.00;;;;8361325;28;20233;-72
2022/08/30 02:38:50;;;;;;;18.23;10.68;;;;;15.50;96603.00;;;;8362211;28;20251;-72
2022/08/30 02:42:53;;;;;;;17.48;11.15;;;;;15.40;96605.00;;;;8361113;28;20227;-72
2022/08/30 02:46:56;;;;;;;17.48;10.63;;;;;15.40;96600.00;;;;8350909;28;20304;-72
2022/08/30 02:51:08;;;;;;;18.60;10.63;;;;;15.40;96606.00;;;;8361690;28;20299;-73
2022/08/30 02:55:13;;;;;;;20.85;12.05;;;;;15.40;96605.00;;;;8360152;28;20216;-73
2022/08/30 02:59:17;;;;;;;19.55;10.45;;;;;15.30;96620.00;;;;8361301;28;20223;-74
2022/08/30 03:03:51;;;;;;;14.90;10.13;;;;;15.40;96617.00;;;;8353146;28;20657;-74
2022/08/30 03:07:56;;;;;;;16.27;9.77;;;;;15.40;96614.00;;;;8370013;28;20231;-73
2022/08/30 03:12:31;;;;;;;14.57;10.27;;;;;15.30;96619.00;;;;8360113;28;20253;-72
2022/08/30 03:16:36;;;;;;;20.13;11.32;;;;;15.30;96615.00;;;;8360206;28;20253;-73
2022/08/30 03:21:14;;;;;;;15.80;9.48;;;;;15.20;96615.00;;;;8360615;28;20247;-73
2022/08/30 03:25:52;;;;;;;18.27;10.52;;;;;15.20;96609.00;;;;8360918;28;20225;-73
2022/08/30 03:30:26;;;;;;;17.95;10.98;;;;;15.20;96613.00;;;;8360944;28;20215;-72
2022/08/30 03:35:03;;;;;;;15.75;9.82;;;;;15.10;96620.00;;;;8359651;28;20731;-73
2022/08/30 03:39:07;;;;;;;16.00;9.93;;;;;15.10;96628.00;;;;8360036;28;20208;-72
2022/08/30 03:43:46;;;;;;;15.02;10.40;;;;;15.10;96625.00;;;;8366855;28;20613;-81
2022/08/30 03:48:20;;;;;;;14.68;9.32;;;;;15.10;96627.00;;;;8366434;28;20236;-82
2022/08/30 03:52:23;;;;;;;18.25;10.15;;;;;15.20;96636.00;;;;8366876;28;20306;-79
2022/08/30 03:57:00;;;;;;;14.40;9.48;;;;;15.30;96644.00;;;;8366260;28;20235;-78
2022/08/30 04:01:40;;;;;;;14.80;9.98;;;;;15.50;96636.00;;;;8366526;28;20621;-79
2022/08/30 04:05:45;;;;;;;14.93;9.80;;;;;15.60;96645.00;;;;8365862;28;20637;-79
2022/08/30 04:10:20;;;;;;;19.23;10.15;;;;;15.60;96637.00;;;;8359577;28;20592;-78
2022/08/30 04:14:57;;;;;;;15.35;9.98;;;;;15.60;96637.00;;;;8362002;28;20527;-74
2022/08/30 04:19:35;;;;;;;18.92;9.85;;;;;15.70;96637.00;;;;8365188;28;20223;-76
2022/08/30 04:23:39;;;;;;;18.80;9.98;;;;;15.60;96642.00;;;;8366582;28;20303;-77
2022/08/30 04:27:42;;;;;;;15.80;9.88;;;;;15.50;96641.00;;;;8365307;28;20255;-75
2022/08/30 04:32:19;;;;;;;17.23;9.95;;;;;15.50;96643.00;;;;8365006;28;20318;-74
2022/08/30 04:36:56;;;;;;;16.92;9.88;;;;;15.40;96652.00;;;;8365374;28;20228;-76
2022/08/30 04:41:39;;;;;;;15.10;9.90;;;;;15.40;96649.00;;;;8362599;28;20220;-76
2022/08/30 04:46:11;;;;;;;16.40;9.57;;;;;15.40;96649.00;;;;8363917;28;20252;-76
2022/08/30 04:50:48;;;;;;;16.35;9.52;;;;;15.40;96644.00;;;;8365720;28;20220;-77
2022/08/30 04:54:54;;;;;;;15.43;9.25;;;;;15.50;96655.00;;;;8364689;28;20323;-77
2022/08/30 04:59:29;;;;;;;16.90;10.52;;;;;15.60;96671.00;;;;8364756;28;20382;-77
2022/08/30 05:03:33;;;;;;;14.50;9.98;;;;;15.50;96672.00;;;;8365036;28;20236;-77
2022/08/30 05:08:08;;;;;;;15.65;9.07;;;;;15.60;96678.00;;;;8363559;28;20220;-76
2022/08/30 05:12:12;;;;;;;18.48;9.88;;;;;16.00;96668.00;;;;8363589;28;20227;-76
2022/08/30 05:16:18;;;;;;;19.90;9.80;;;;;16.30;96670.00;;;;8365602;28;20550;-78
2022/08/30 05:21:02;;;;;;;15.52;10.52;;;;;16.50;96668.00;;;;8363704;28;20502;-70
2022/08/30 05:25:06;;;;;;;14.25;10.23;;;;;16.60;96677.00;;;;8363027;28;20300;-69
2022/08/30 05:29:10;;;;;;;15.70;9.27;;;;;16.80;96664.00;;;;8363713;28;20345;-71
2022/08/30 05:33:14;;;;;;;15.82;9.95;;;;;16.90;96671.00;;;;8363009;28;20228;-71
2022/08/30 05:37:17;;;;;;;17.73;9.93;;;;;17.00;96669.00;;;;8362289;28;20231;-71
2022/08/30 05:41:21;;;;;;;13.13;9.13;;;;;17.10;96671.00;;;;8363569;28;20318;-71
2022/08/30 05:45:28;;;;;;;18.58;9.75;;;;;17.10;96679.00;;;;8362772;28;20220;-71
2022/08/30 05:49:32;;;;;;;13.38;10.20;;;;;17.30;96680.00;;;;8362782;28;20315;-71
2022/08/30 05:53:36;;;;;;;14.98;9.70;;;;;17.60;96680.00;;;;8363290;28;20228;-71
2022/08/30 05:57:41;;;;;;;12.95;9.40;;;;;17.90;96690.00;;;;8363213;28;20331;-71
2022/08/30 06:01:45;;;;;;;14.63;9.35;;;;;18.10;96685.00;;;;8361818;28;20235;-71
2022/08/30 06:05:50;;;;;;;15.30;10.15;;;;;18.50;96681.00;;;;8362388;28;20278;-71
2022/08/30 06:10:24;;;;;;;14.32;9.60;;;;;18.70;96690.00;;;;8361878;28;20232;-71
2022/08/30 06:14:27;;;;;;;14.43;9.43;;;;;18.90;96696.00;;;;8362581;28;20231;-71
2022/08/30 06:18:31;;;;;;;17.30;10.15;;;;;19.00;96688.00;;;;8363064;28;20449;-71
2022/08/30 06:23:06;;;;;;;16.52;10.10;;;;;19.00;96694.00;;;;8362260;28;20312;-71
2022/08/30 06:27:10;;;;;;;14.75;8.95;;;;;19.20;96695.00;;;;8361633;28;20223;-71
2022/08/30 06:31:44;;;;;;;12.38;8.88;;;;;19.40;96688.00;;;;8361935;28;20255;-71
2022/08/30 06:35:48;;;;;;;10.50;8.77;;;;;19.70;96692.00;;;;8361095;28;20254;-71
2022/08/30 06:40:03;;;;;;;12.50;10.02;;;;;20.00;96690.00;;;;8361440;28;20312;-71
2022/08/30 06:44:38;;;;;;;11.32;8.60;;;;;20.10;96694.00;;;;8361976;28;20217;-71
2022/08/30 06:48:48;;;;;;;13.88;9.48;;;;;20.40;96684.00;;;;8361858;28;20251;-71
2022/08/30 06:52:52;;;;;;;12.75;9.05;;;;;20.60;96694.00;;;;8361145;28;20311;-71
2022/08/30 06:57:27;;;;;;;14.57;10.07;;;;;20.80;96701.00;;;;8361392;28;20223;-71
2022/08/30 07:01:31;;;;;;;15.30;8.50;;;;;21.10;96701.00;;;;8360766;28;20216;-71
2022/08/30 07:05:34;;;;;;;15.90;10.75;;;;;21.50;96697.00;;;;8361088;28;20702;-71
2022/08/30 07:10:10;;;;;;;14.68;10.93;;;;;21.80;96689.00;;;;8360493;28;20238;-71
2022/08/30 07:14:15;;;;;;;14.45;10.35;;;;;22.00;96693.00;;;;8360046;28;20223;-71
2022/08/30 07:18:53;;;;;;;18.70;10.75;;;;;22.40;96687.00;;;;8360337;28;20601;-71
2022/08/30 07:22:56;;;;;;;15.77;10.80;;;;;22.80;96701.00;;;;8360349;28;20291;-71
2022/08/30 07:27:00;;;;;;;17.92;9.80;;;;;23.50;96701.00;;;;8360436;28;20220;-71
2022/08/30 07:31:05;;;;;;;18.30;9.70;;;;;24.20;96707.00;;;;8360817;28;20857;-71
2022/08/30 07:35:13;;;;;;;16.98;10.23;;;;;25.00;96710.00;;;;8360327;28;20225;-71
2022/08/30 07:39:50;;;;;;;15.45;10.30;;;;;25.10;96710.00;;;;8360367;28;20311;-71
2022/08/30 07:43:54;;;;;;;13.40;9.20;;;;;25.40;96706.00;;;;8355940;28;20304;-70
2022/08/30 07:48:29;;;;;;;13.45;9.13;;;;;26.20;96716.00;;;;8358906;28;20735;-68
2022/08/30 07:52:33;;;;;;;11.25;9.13;;;;;27.20;96714.00;;;;8360019;28;20209;-65
2022/08/30 07:56:36;;;;;;;13.32;9.20;;;;;27.80;96719.00;;;;8359599;28;20222;-65
2022/08/30 08:00:39;;;;;;;14.52;9.13;;;;;28.60;96716.00;;;;8359882;28;20311;-65
2022/08/30 08:05:16;;;;;;;12.27;8.85;;;;;28.80;96713.00;;;;8359948;28;20224;-66
2022/08/30 08:09:24;;;;;;;10.40;8.20;;;;;29.60;96720.00;;;;8359590;28;20213;-65
2022/08/30 08:13:46;;;;;;;10.68;8.70;;;;;30.00;96718.00;;;;8359864;28;20299;-65
2022/08/30 08:17:56;;;;;;;11.40;8.23;;;;;30.00;96706.00;;;;8360018;28;20266;-66
2022/08/30 08:22:01;;;;;;;9.25;8.00;;;;;30.10;96715.00;;;;8359286;28;20221;-66
2022/08/30 08:26:23;;;;;;;11.85;8.30;;;;;30.10;96722.00;;;;8360958;28;20220;-66
2022/08/30 08:31:00;;;;;;;11.75;7.57;;;;;30.50;96724.00;;;;8366059;28;20752;-66
2022/08/30 08:35:37;;;;;;;11.43;8.40;;;;;30.30;96730.00;;;;8365549;28;20225;-66
2022/08/30 08:39:42;;;;;;;11.70;8.18;;;;;30.30;96726.00;;;;8365064;28;20638;-70
2022/08/30 08:44:22;;;;;;;13.45;9.43;;;;;30.50;96728.00;;;;8365596;28;20224;-70
2022/08/30 08:48:31;;;;;;;11.40;8.25;;;;;30.60;96722.00;;;;8363959;28;20665;-70
2022/08/30 08:57:41;;;;;;;12.40;8.25;;;;;31.20;96716.00;;;;8358088;28;20228;-70
2022/08/30 09:01:44;;;;;;;11.23;7.93;;;;;31.30;96715.00;;;;8365581;28;20232;-70
2022/08/30 09:05:49;;;;;;;12.02;7.82;;;;;31.30;96710.00;;;;8365122;28;20650;-70
2022/08/30 09:09:52;;;;;;;8.30;7.05;;;;;31.70;96715.00;;;;8364962;28;20543;-70
2022/08/30 09:14:17;;;;;;;11.48;8.05;;;;;31.70;96716.00;;;;8364802;28;20285;-76
2022/08/30 09:18:54;;;;;;;8.90;7.25;;;;;31.80;96713.00;;;;8364779;28;20334;-76
2022/08/30 09:23:11;;;;;;;9.55;7.85;;;;;32.10;96712.00;;;;8364663;28;20224;-75
2022/08/30 09:27:26;;;;;;;10.23;6.82;;;;;32.40;96703.00;;;;8365082;28;20581;-76
2022/08/30 09:31:54;;;;;;;8.15;6.82;;;;;32.80;96701.00;;;;8364383;28;20208;-79
2022/08/30 09:36:24;;;;;;;11.50;6.82;;;;;33.10;96701.00;;;;8363701;28;20216;-78
2022/08/30 09:40:55;;;;;;;11.70;6.63;;;;;33.50;96700.00;;;;8361608;28;20304;-79
2022/08/30 09:45:10;;;;;;;7.93;7.10;;;;;33.80;96704.00;;;;8363268;28;20224;-79
2022/08/30 09:49:36;;;;;;;7.50;6.75;;;;;33.70;96701.00;;;;8364199;28;20303;-79
2022/08/30 09:53:52;;;;;;;9.95;6.82;;;;;33.60;96701.00;;;;8364134;28;20728;-78
2022/08/30 09:58:27;;;;;;;12.23;7.00;;;;;34.20;96697.00;;;;8363506;28;20220;-78
2022/08/30 10:03:15;;;;;;;9.73;6.72;;;;;34.10;96692.00;;;;8363260;28;20212;-78
2022/08/30 10:07:46;;;;;;;9.45;6.30;;;;;33.60;96698.00;;;;8363049;28;20646;-78
2022/08/30 10:12:15;;;;;;;11.38;5.78;;;;;33.90;96682.00;;;;8363371;28;20217;-79
2022/08/30 10:16:34;;;;;;;10.25;7.13;;;;;34.60;96686.00;;;;8361400;28;20216;-78
2022/08/30 10:21:00;;;;;;;6.55;5.25;;;;;34.80;96679.00;;;;8362949;28;20221;-77
2022/08/30 10:25:32;;;;;;;7.40;5.85;;;;;34.20;96671.00;;;;8362763;28;20248;-81
2022/08/30 10:29:42;;;;;;;6.00;5.40;;;;;34.40;96675.00;;;;8363228;28;20321;-82
2022/08/30 10:33:53;;;;;;;8.68;5.10;;;;;35.50;96672.00;;;;8362020;28;20698;-81
2022/08/30 10:38:23;;;;;;;5.95;5.35;;;;;36.10;96676.00;;;;8362661;28;20216;-81
2022/08/30 10:42:32;;;;;;;9.63;6.32;;;;;35.40;96670.00;;;;8361630;28;20228;-82
2022/08/30 10:47:08;;;;;;;8.25;6.43;;;;;34.40;96665.00;;;;8361899;28;20236;-82
2022/08/30 10:51:20;;;;;;;8.15;6.50;;;;;33.80;96660.00;;;;8361296;28;20228;-82
2022/08/30 10:55:49;;;;;;;13.38;6.00;;;;;33.30;96660.00;;;;8361593;28;20217;-82
2022/08/30 10:59:58;;;;;;;9.48;6.47;;;;;32.70;96658.00;;;;8362309;28;20220;-80
2022/08/30 11:04:42;;;;;;;6.80;6.15;;;;;31.90;96651.00;;;;8362636;28;20266;-82
2022/08/30 11:09:49;;;;;;;7.07;6.38;;;;;31.60;96651.00;;;;8361178;28;20573;-85
2022/08/30 11:13:52;;;;;;;6.95;6.18;;;;;30.80;96657.00;;;;8361397;28;20216;-80
2022/08/30 11:18:04;;;;;;;7.43;6.72;;;;;29.80;96646.00;;;;8360933;28;20650;-80
2022/08/30 11:22:36;;;;;;;9.82;6.50;;;;;29.30;96646.00;;;;8361148;28;20327;-77
2022/08/30 11:27:38;;;;;;;13.43;6.88;;;;;28.90;96633.00;;;;8360339;28;20234;-77
2022/08/30 11:31:42;;;;;;;7.70;6.68;;;;;28.60;96641.00;;;;8360310;28;20653;-77
2022/08/30 11:35:49;;;;;;;10.93;7.05;;;;;28.50;96635.00;;;;8360086;28;20697;-77
2022/08/30 11:39:55;;;;;;;8.25;6.47;;;;;28.50;96634.00;;;;8360290;28;20304;-81
2022/08/30 11:44:27;;;;;;;8.95;6.82;;;;;28.60;96632.00;;;;8359810;28;20226;-80
2022/08/30 11:48:50;;;;;;;8.02;6.55;;;;;28.80;96631.00;;;;8360731;28;20264;-79
2022/08/30 11:53:02;;;;;;;9.60;5.93;;;;;29.00;96634.00;;;;8359774;28;20248;-79
2022/08/30 11:57:33;;;;;;;9.70;6.10;;;;;29.30;96630.00;;;;8360617;28;20254;-78
2022/08/30 12:01:39;;;;;;;7.35;5.20;;;;;29.80;96632.00;;;;8362527;28;20307;-78
2022/08/30 12:05:57;;;;;;;8.32;5.38;;;;;30.10;96624.00;;;;8367363;28;20221;-78
2022/08/30 12:10:37;;;;;;;7.97;4.95;;;;;30.50;96622.00;;;;8366568;28;20224;-78
2022/08/30 12:14:50;;;;;;;5.38;4.65;;;;;30.60;96625.00;;;;8366754;28;20216;-77
2022/08/30 12:18:59;;;;;;;6.85;4.97;;;;;30.80;96616.00;;;;8367108;28;20530;-77
2022/08/30 12:23:17;;;;;;;8.63;5.53;;;;;30.70;96618.00;;;;8365385;28;20217;-78
2022/08/30 12:27:39;;;;;;;10.20;5.55;;;;;30.60;96619.00;;;;8366223;28;20299;-78
2022/08/30 12:31:45;;;;;;;6.38;5.32;;;;;30.80;96606.00;;;;8365165;28;20227;-78
2022/08/30 12:36:32;;;;;;;7.68;5.07;;;;;30.80;96608.00;;;;8365993;28;20236;-78
2022/08/30 12:40:35;;;;;;;7.63;4.90;;;;;31.10;96601.00;;;;8365240;28;20232;-78
2022/08/30 12:45:15;;;;;;;6.45;5.57;;;;;31.50;96594.00;;;;8365833;28;20287;-78
2022/08/30 12:49:20;;;;;;;9.27;5.88;;;;;31.50;96600.00;;;;8364810;28;20219;-80
2022/08/30 12:53:28;;;;;;;7.15;5.53;;;;;31.20;96592.00;;;;8365541;28;20649;-80
2022/08/30 12:58:00;;;;;;;6.35;5.25;;;;;31.40;96584.00;;;;8364657;28;20306;-80
2022/08/30 13:02:43;;;;;;;7.95;4.95;;;;;31.50;96576.00;;;;8365112;28;20312;-79
2022/08/30 13:06:51;;;;;;;8.50;4.93;;;;;31.70;96577.00;;;;8364841;28;20586;-79
2022/08/30 13:11:02;;;;;;;5.45;4.75;;;;;31.60;96586.00;;;;8364769;28;20531;-79
2022/08/30 13:15:32;;;;;;;8.52;4.93;;;;;31.50;96583.00;;;;8364180;28;20224;-78
2022/08/30 13:20:21;;;;;;;5.50;5.00;;;;;31.70;96579.00;;;;8368017;28;20252;-78
2022/08/30 13:24:25;;;;;;;4.85;4.38;;;;;31.70;96582.00;;;;8364040;28;20298;-78
2022/08/30 13:28:29;;;;;;;7.45;4.68;;;;;31.80;96574.00;;;;8364003;28;20588;-78
2022/08/30 13:33:10;;;;;;;5.22;4.38;;;;;32.30;96568.00;;;;8363228;28;20246;-78
2022/08/30 13:37:44;;;;;;;6.35;4.80;;;;;32.80;96563.00;;;;8345155;28;20235;-80
2022/08/30 13:41:52;;;;;;;9.05;4.57;;;;;33.50;96563.00;;;;8362470;28;20228;-77
2022/08/30 13:46:31;;;;;;;6.57;3.90;;;;;33.20;96568.00;;;;8363237;28;20332;-79
2022/08/30 13:50:34;;;;;;;4.03;3.20;;;;;32.20;96563.00;;;;8361967;28;20236;-79
2022/08/30 13:55:11;;;;;;;6.05;3.70;;;;;31.20;96560.00;;;;8362880;28;20224;-78
2022/08/30 13:59:48;;;;;;;4.70;3.80;;;;;30.70;96561.00;;;;8361589;28;20554;-79
2022/08/30 14:03:54;;;;;;;6.00;3.55;;;;;30.70;96554.00;;;;8362925;28;20217;-79
2022/08/30 14:08:20;;;;;;;4.05;3.17;;;;;30.80;96556.00;;;;8361924;28;20277;-79
2022/08/30 14:13:30;;;;;;;5.95;3.40;;;;;31.10;96554.00;;;;8362110;28;20228;-77
2022/08/30 14:18:07;;;;;;;4.53;3.17;;;;;31.10;96550.00;;;;8362127;28;20224;-75
2022/08/30 14:22:43;;;;;;;3.95;3.38;;;;;31.40;96545.00;;;;8363074;28;20232;-81
2022/08/30 14:27:19;;;;;;;7.93;3.20;;;;;31.90;96540.00;;;;8360614;28;20258;-80
2022/08/30 14:31:54;;;;;;;6.28;3.20;;;;;31.70;96544.00;;;;8361711;28;20228;-81
2022/08/30 14:36:31;;;;;;;5.45;3.63;;;;;31.60;96544.00;;;;8357625;28;20224;-81
2022/08/30 14:40:56;;;;;;;7.03;3.30;;;;;31.40;96537.00;;;;8362221;28;20231;-81
2022/08/30 14:45:30;;;;;;;5.50;3.00;;;;;31.20;96540.00;;;;8294330;28;20214;-79
2022/08/30 14:50:07;;;;;;;4.60;2.97;;;;;30.70;96536.00;;;;8294839;28;20224;-82
2022/08/30 14:54:11;;;;;;;6.40;2.97;;;;;30.50;96533.00;;;;8295663;28;20213;-81
2022/08/30 14:58:34;;;;;;;5.10;3.67;;;;;30.10;96528.00;;;;8296278;28;20567;-86
2022/08/30 15:03:11;;;;;;;8.23;2.90;;;;;29.80;96539.00;;;;8279388;28;20213;-79
2022/08/30 15:07:51;;;;;;;4.28;3.33;;;;;29.60;96529.00;;;;8295931;28;20217;-81
2022/08/30 15:12:25;;;;;;;6.60;2.83;;;;;29.40;96522.00;;;;8285510;28;20300;-80
2022/08/30 15:17:02;;;;;;;6.45;3.33;;;;;29.20;96524.00;;;;8294622;28;20218;-80
2022/08/30 15:21:40;;;;;;;3.25;2.95;;;;;29.00;96509.00;;;;8293096;28;20225;-80
2022/08/30 15:26:16;;;;;;;3.50;2.97;;;;;28.90;96515.00;;;;8294369;28;20249;-79
2022/08/30 15:30:50;;;;;;;5.43;3.15;;;;;29.00;96505.00;;;;8293091;28;20214;-79
2022/08/30 15:35:27;;;;;;;5.22;3.60;;;;;29.20;96497.00;;;;8294828;28;20229;-80
2022/08/30 15:40:06;;;;;;;4.63;3.35;;;;;29.50;96502.00;;;;8300170;28;20655;-81
2022/08/30 15:44:12;;;;;;;4.45;3.38;;;;;29.80;96494.00;;;;8353506;28;20228;-81
2022/08/30 15:48:46;;;;;;;3.70;3.40;;;;;30.00;96488.00;;;;8365135;28;20727;-81
2022/08/30 15:53:21;;;;;;;5.20;3.10;;;;;30.00;96483.00;;;;8366651;28;20288;-81
2022/08/30 15:57:58;;;;;;;6.75;3.05;;;;;30.00;96484.00;;;;8365406;28;20250;-80
2022/08/30 16:02:37;;;;;;;4.18;3.25;;;;;29.90;96480.00;;;;8364704;28;20247;-80
2022/08/30 16:07:11;;;;;;;10.00;3.55;;;;;29.50;96485.00;;;;8365748;28;20220;-81
2022/08/30 16:11:48;;;;;;;6.57;3.17;;;;;29.20;96483.00;;;;8364463;28;20232;-82
2022/08/30 16:16:26;;;;;;;4.78;3.28;;;;;29.00;96474.00;;;;8365753;28;20237;-80
2022/08/30 16:20:33;;;;;;;7.00;3.55;;;;;28.70;96476.00;;;;8365461;28;20252;-78
2022/08/30 16:25:04;;;;;;;5.57;3.47;;;;;28.60;96476.00;;;;8365917;28;20235;-79
2022/08/30 16:29:39;;;;;;;11.85;3.80;;;;;28.30;96476.00;;;;8365064;28;20216;-79
2022/08/30 16:33:43;;;;;;;6.50;3.53;;;;;28.20;96473.00;;;;8365724;28;20551;-79
2022/08/30 16:37:48;;;;;;;5.00;3.50;;;;;28.10;96475.00;;;;8365838;28;20725;-79
2022/08/30 16:42:23;;;;;;;7.40;3.13;;;;;27.90;96463.00;;;;8362994;28;20228;-80
2022/08/30 16:47:00;;;;;;;4.70;3.42;;;;;28.10;96455.00;;;;8365340;28;20673;-80
2022/08/30 16:51:37;;;;;;;5.60;3.30;;;;;28.40;96452.00;;;;8364089;28;20224;-79
2022/08/30 16:56:17;;;;;;;6.50;2.60;;;;;28.50;96448.00;;;;8364479;28;20220;-78
2022/08/30 17:00:51;;;;;;;6.63;2.88;;;;;28.40;96448.00;;;;8364701;28;20216;-78
2022/08/30 17:05:28;;;;;;;3.13;2.80;;;;;28.20;96444.00;;;;8365336;28;20664;-78
2022/08/30 17:09:31;;;;;;;4.57;3.15;;;;;27.90;96448.00;;;;8365002;28;20304;-78
2022/08/30 17:13:37;;;;;;;8.77;3.80;;;;;27.70;96451.00;;;;8364995;28;20220;-78
2022/08/30 17:17:40;;;;;;;7.63;3.72;;;;;27.30;96449.00;;;;8364818;28;20549;-78
2022/08/30 17:22:15;;;;;;;6.55;3.35;;;;;27.10;96455.00;;;;8364939;28;20233;-77
2022/08/30 17:26:53;;;;;;;5.25;3.65;;;;;26.80;96460.00;;;;8364260;28;20304;-77
2022/08/30 17:31:31;;;;;;;5.40;3.38;;;;;26.60;96463.00;;;;8364758;28;20641;-77
2022/08/30 17:36:06;;;;;;;5.78;3.15;;;;;26.30;96466.00;;;;8363311;28;20213;-78
2022/08/30 17:40:10;;;;;;;7.78;3.33;;;;;26.10;96475.00;;;;8363642;28;20292;-77
2022/08/30 17:44:44;;;;;;;6.95;3.13;;;;;25.80;96474.00;;;;8362233;28;20233;-78
2022/08/30 17:49:23;;;;;;;6.57;3.50;;;;;25.60;96475.00;;;;8363725;28;20259;-77
2022/08/30 17:53:57;;;;;;;4.07;3.05;;;;;25.30;96477.00;;;;8362984;28;20608;-77
2022/08/30 17:58:01;;;;;;;5.35;3.55;;;;;25.10;96489.00;;;;8363174;28;20618;-78
2022/08/30 18:02:34;;;;;;;4.43;3.67;;;;;24.80;96495.00;;;;8362893;28;20246;-78
2022/08/30 18:06:39;;;;;;;3.60;3.30;;;;;24.70;96499.00;;;;8363138;28;20703;-78
2022/08/30 18:11:11;;;;;;;5.47;3.88;;;;;24.50;96497.00;;;;8362898;28;20228;-77
2022/08/30 18:15:15;;;;;;;7.20;3.65;;;;;24.30;96502.00;;;;8357923;28;20316;-76
2022/08/30 18:19:50;;;;;;;6.70;3.60;;;;;24.00;96509.00;;;;8361503;28;20653;-75
2022/08/30 18:24:27;;;;;;;6.57;3.30;;;;;23.80;96515.00;;;;8362585;28;20591;-77
2022/08/30 18:29:05;;;;;;;6.80;4.05;;;;;23.60;96517.00;;;;8361968;28;20304;-77
2022/08/30 18:33:10;;;;;;;4.43;3.63;;;;;23.50;96518.00;;;;8362427;28;20220;-77
2022/08/30 18:37:48;;;;;;;6.22;3.97;;;;;23.30;96523.00;;;;8357851;28;20215;-76
2022/08/30 18:42:10;;;;;;;5.03;4.03;;;;;23.20;96538.00;;;;8356576;28;20711;-76
2022/08/30 18:46:49;;;;;;;9.95;4.50;;;;;22.90;96542.00;;;;8354652;28;20231;-75
2022/08/30 18:51:24;;;;;;;7.15;4.90;;;;;22.70;96550.00;;;;8357267;28;20217;-75
2022/08/30 18:55:59;;;;;;;12.55;5.53;;;;;22.70;96549.00;;;;8357825;28;20304;-78
2022/08/30 19:00:36;;;;;;;9.43;5.57;;;;;22.70;96549.00;;;;8361623;28;20248;-78
2022/08/30 19:05:15;;;;;;;6.25;5.60;;;;;22.60;96549.00;;;;8360151;28;20220;-75
2022/08/30 19:09:53;;;;;;;8.07;5.97;;;;;22.50;96549.00;;;;8359589;28;20701;-76
2022/08/30 19:14:00;;;;;;;10.15;6.45;;;;;22.50;96549.00;;;;8359103;28;20221;-76
2022/08/30 19:18:08;;;;;;;9.32;6.88;;;;;22.40;96551.00;;;;8359398;28;20208;-75
2022/08/30 19:22:42;;;;;;;9.20;6.32;;;;;22.30;96545.00;;;;8357917;28;20224;-75
2022/08/30 19:27:05;;;;;;;11.52;6.55;;;;;22.30;96546.00;;;;8361675;28;20270;-76
2022/08/30 19:31:09;;;;;;;9.00;6.03;;;;;22.20;96554.00;;;;8360602;28;20249;-75
2022/08/30 19:35:46;;;;;;;8.98;6.70;;;;;22.10;96558.00;;;;8360791;28;20303;-78
2022/08/30 19:40:22;;;;;;;14.93;6.65;;;;;22.00;96554.00;;;;8360791;28;20681;-78
2022/08/30 19:45:01;;;;;;;6.63;5.22;;;;;21.80;96551.00;;;;8359980;28;20307;-78
2022/08/30 19:49:07;;;;;;;6.63;5.07;;;;;21.60;96553.00;;;;8359254;28;20601;-77
2022/08/30 19:53:13;;;;;;;7.88;5.40;;;;;21.40;96555.00;;;;8360377;28;20330;-77
2022/08/30 19:57:49;;;;;;;10.93;5.63;;;;;21.20;96555.00;;;;8359135;28;20307;-79
2022/08/30 20:02:23;;;;;;;8.10;5.43;;;;;21.30;96549.00;;;;8360073;28;20231;-79
2022/08/30 20:06:59;;;;;;;12.63;6.00;;;;;21.30;96556.00;;;;8357502;28;20604;-78
2022/08/30 20:11:37;;;;;;;8.82;5.85;;;;;21.30;96550.00;;;;8353519;28;20256;-76
2022/08/30 20:16:14;;;;;;;8.85;5.82;;;;;21.30;96562.00;;;;8364843;28;20308;-78
2022/08/30 20:20:48;;;;;;;14.32;6.15;;;;;21.20;96560.00;;;;8355023;28;20225;-78
2022/08/30 20:25:26;;;;;;;7.35;5.15;;;;;21.20;96567.00;;;;8366065;28;20247;-77
2022/08/30 20:30:04;;;;;;;8.57;6.18;;;;;21.20;96560.00;;;;8365898;28;20267;-76
2022/08/30 20:34:08;;;;;;;8.85;6.68;;;;;21.20;96556.00;;;;8366336;28;20630;-77
2022/08/30 20:38:42;;;;;;;8.75;6.05;;;;;21.10;96551.00;;;;8365794;28;20231;-77
2022/08/30 20:42:49;;;;;;;11.77;6.15;;;;;21.00;96553.00;;;;8365684;28;20666;-76
2022/08/30 20:46:53;;;;;;;8.80;6.03;;;;;21.00;96547.00;;;;8366297;28;20221;-76
2022/08/30 20:50:57;;;;;;;10.38;6.45;;;;;21.00;96549.00;;;;8365624;28;20307;-79
2022/08/30 20:55:31;;;;;;;10.98;6.60;;;;;20.90;96548.00;;;;8365505;28;20304;-79
2022/08/30 20:59:35;;;;;;;7.95;6.22;;;;;20.80;96544.00;;;;8365448;28;20224;-78
2022/08/30 21:04:09;;;;;;;9.15;6.25;;;;;20.70;96547.00;;;;8365213;28;20717;-78
2022/08/30 21:08:13;;;;;;;7.10;6.30;;;;;20.60;96555.00;;;;8364838;28;20247;-80
2022/08/30 21:12:16;;;;;;;9.65;6.38;;;;;20.60;96556.00;;;;8365135;28;20259;-80
2022/08/30 21:16:19;;;;;;;9.48;6.90;;;;;20.50;96563.00;;;;8364715;28;20224;-80
2022/08/30 21:20:55;;;;;;;11.25;6.43;;;;;20.50;96572.00;;;;8363904;28;20271;-80
2022/08/30 21:25:00;;;;;;;9.38;6.03;;;;;20.40;96566.00;;;;8364678;28;20718;-79
2022/08/30 21:29:05;;;;;;;11.10;6.45;;;;;20.40;96564.00;;;;8364084;28;20304;-78
2022/08/30 21:33:09;;;;;;;11.05;6.55;;;;;20.30;96574.00;;;;8363623;28;20725;-78
2022/08/30 21:37:12;;;;;;;8.90;6.22;;;;;20.20;96572.00;;;;8364349;28;20580;-79
2022/08/30 21:41:49;;;;;;;9.05;6.35;;;;;20.20;96582.00;;;;8364683;28;20226;-79